Time;durP1;ratioP1;P1;durP2;ratioP2;P2;SDS_P1;SDS_P2;PMS_P1;PMS_P2;Temp;Humidity;BMP_temperature;BMP_pressure;BME280_temperature;BME280_humidity;BME280_pressure;Samples;Min_cycle;Max_cycle;Signal;HPM_P1;HPM_P2
2023/06/28 00:01:04;;;;;;;6.50;5.20;;;;;;;26.21;59.72;100916.72;4990059;28;20023;-83
2023/06/28 00:03:30;;;;;;;;;;;;;;;26.41;59.48;100944.19;5003983;28;20088;-84
2023/06/28 00:05:56;;;;;;;6.20;4.75;;;;;;;26.06;59.75;100900.78;5004144;28;20272;-84
2023/06/28 00:08:21;;;;;;;;;;;;;;;26.38;59.60;100946.91;5025064;28;20021;-83
2023/06/28 00:10:47;;;;;;;5.65;4.97;;;;;;;26.16;59.56;100923.88;5000164;28;19914;-85
2023/06/28 00:13:13;;;;;;;7.95;5.00;;;;;;;26.21;59.33;100930.09;5014244;28;20037;-83
2023/06/28 00:15:38;;;;;;;6.28;4.75;;;;;;;26.25;59.17;100931.84;5001041;28;20045;-84
2023/06/28 00:18:04;;;;;;;;;;;;;;;26.36;59.62;100947.84;5011513;28;20488;-85
2023/06/28 00:20:31;;;;;;;5.55;4.80;;;;;;;26.35;59.78;100940.69;5017613;28;19997;-87
2023/06/28 00:22:56;;;;;;;5.30;4.80;;;;;;;26.13;59.47;100908.75;4985089;28;20087;-85
2023/06/28 00:25:22;;;;;;;;;;;;;;;26.36;59.49;100942.47;5020424;28;20467;-85
2023/06/28 00:27:47;;;;;;;5.45;4.53;;;;;;;26.22;59.64;100931.88;5014416;28;19971;-85
2023/06/28 00:30:13;;;;;;;5.22;4.70;;;;;;;26.27;59.50;100938.09;5012606;28;20128;-84
2023/06/28 00:32:39;;;;;;;;;;;;;;;26.36;59.34;100939.78;5014184;28;20057;-84
2023/06/28 00:35:07;;;;;;;5.50;4.60;;;;;;;26.28;59.32;100937.16;5015087;28;20401;-84
2023/06/28 00:37:33;;;;;;;5.57;4.85;;;;;;;25.93;59.50;100870.53;5013304;28;20033;-84
2023/06/28 00:39:59;;;;;;;;;;;;;;;26.32;59.63;100938.03;5014648;28;20087;-85
2023/06/28 00:42:24;;;;;;;5.40;4.80;;;;;;;26.27;59.24;100934.50;5009658;28;20307;-86
2023/06/28 00:44:50;;;;;;;5.22;4.72;;;;;;;26.20;59.16;100928.31;5016217;28;20026;-84
2023/06/28 00:47:16;;;;;;;5.30;4.80;;;;;;;26.27;59.24;100940.75;5006474;28;20030;-83
2023/06/28 00:49:42;;;;;;;6.90;4.72;;;;;;;26.21;59.10;100935.47;5013013;28;20671;-84
2023/06/28 00:52:10;;;;;;;7.15;5.10;;;;;;;26.27;59.30;100946.13;5020374;28;20025;-84
2023/06/28 00:54:36;;;;;;;5.25;4.75;;;;;;;26.18;59.14;100932.78;5026066;28;20053;-84
2023/06/28 00:57:03;;;;;;;6.75;4.72;;;;;;;26.23;59.22;100936.34;5015617;28;20189;-84
2023/06/28 00:59:29;;;;;;;6.60;4.80;;;;;;;26.25;59.02;100942.56;5012568;28;20120;-84
2023/06/28 01:01:55;;;;;;;6.60;4.72;;;;;;;26.12;59.28;100922.13;5023954;28;20033;-84
2023/06/28 01:04:20;;;;;;;;;;;;;;;26.26;59.11;100935.41;5006586;28;20038;-83
2023/06/28 01:06:51;;;;;;;8.00;5.18;;;;;;;26.09;59.20;100920.38;5017425;28;20380;-84
2023/06/28 01:09:18;;;;;;;5.38;4.85;;;;;;;26.23;59.24;100946.16;5006916;28;20647;-84
2023/06/28 01:11:44;;;;;;;5.28;4.50;;;;;;;26.06;59.06;100916.84;4997687;28;20519;-84
2023/06/28 01:14:09;;;;;;;;;;;;;;;26.24;59.20;100946.13;5004518;28;20033;-85
2023/06/28 01:16:35;;;;;;;5.43;4.70;;;;;;;26.08;59.24;100923.06;5016771;28;19921;-83
2023/06/28 01:19:03;;;;;;;5.53;4.78;;;;;;;26.09;59.25;100933.75;5008392;28;20469;-84
2023/06/28 01:21:33;;;;;;;6.10;5.13;;;;;;;26.03;59.47;100912.38;5009663;28;20087;-84
2023/06/28 01:24:02;;;;;;;5.28;4.78;;;;;;;26.17;59.27;100936.38;5027074;28;20523;-83
2023/06/28 01:26:27;;;;;;;5.22;4.65;;;;;;;26.14;58.84;100931.03;5000387;28;20507;-85
2023/06/28 01:28:53;;;;;;;;;;;;;;;26.22;58.97;100944.38;4996093;28;20026;-84
2023/06/28 01:31:18;;;;;;;5.07;4.57;;;;;;;26.13;58.92;100940.84;4996264;28;19913;-84
2023/06/28 01:33:46;;;;;;;5.10;4.60;;;;;;;26.12;59.07;100943.53;5014869;28;20041;-84
2023/06/28 01:36:12;;;;;;;5.00;4.50;;;;;;;26.00;59.00;100915.09;5005599;28;20511;-85
2023/06/28 01:38:38;;;;;;;;;;;;;;;26.18;59.09;100930.09;5011134;28;20026;-83
2023/06/28 01:41:05;;;;;;;4.90;4.20;;;;;;;26.09;58.81;100928.41;5009403;28;19964;-84
2023/06/28 01:43:31;;;;;;;5.07;4.57;;;;;;;26.12;59.12;100939.09;5023997;28;20030;-84
2023/06/28 01:45:56;;;;;;;;;;;;;;;26.16;59.08;100937.25;5011792;28;20402;-87
2023/06/28 01:48:22;;;;;;;6.13;4.57;;;;;;;26.13;58.96;100934.63;4983055;28;19914;-83
2023/06/28 01:50:47;;;;;;;4.95;4.45;;;;;;;26.10;58.85;100938.22;5013373;28;20112;-84
2023/06/28 01:53:13;;;;;;;5.15;4.65;;;;;;;26.09;59.23;100939.09;4993700;28;20420;-83
2023/06/28 01:55:39;;;;;;;;;;;;;;;26.12;58.99;100940.88;5022947;28;20022;-85
2023/06/28 01:58:04;;;;;;;5.00;4.50;;;;;;;25.62;59.00;100870.72;5004051;28;19941;-84
2023/06/28 02:00:30;;;;;;;;;;;;;;;26.11;58.92;100944.44;5009847;28;20096;-84
2023/06/28 02:02:55;;;;;;;6.57;4.88;;;;;;;26.07;59.02;100940.91;5013343;28;19910;-84
2023/06/28 02:05:21;;;;;;;5.35;4.40;;;;;;;26.07;59.11;100938.22;5014980;28;20022;-85
2023/06/28 02:07:47;;;;;;;5.32;4.68;;;;;;;25.98;59.16;100924.91;4997906;28;20127;-85
2023/06/28 02:10:12;;;;;;;5.70;5.10;;;;;;;25.99;58.64;100932.03;5015073;28;20045;-84
2023/06/28 02:12:38;;;;;;;6.32;5.40;;;;;;;25.96;59.04;100932.06;5020196;28;20037;-85
2023/06/28 02:15:04;;;;;;;;;;;;;;;26.10;58.79;100942.66;4998365;28;20041;-85
2023/06/28 02:17:30;;;;;;;5.57;4.55;;;;;;;25.90;58.72;100916.94;4994587;28;20571;-84
2023/06/28 02:19:56;;;;;;;5.00;4.47;;;;;;;25.82;58.57;100905.34;5015239;28;20038;-85
2023/06/28 02:22:21;;;;;;;;;;;;;;;26.05;58.91;100940.03;4992792;28;20417;-85
2023/06/28 02:24:47;;;;;;;5.65;4.72;;;;;;;25.94;58.85;100920.50;5008340;28;20055;-84
2023/06/28 02:27:13;;;;;;;;;;;;;;;26.06;58.61;100939.13;5009751;28;20112;-84
2023/06/28 02:29:39;;;;;;;5.50;4.93;;;;;;;25.82;58.83;100904.47;5025581;28;19913;-85
2023/06/28 02:32:04;;;;;;;;;;;;;;;26.04;58.60;100943.63;5003538;28;20510;-85
2023/06/28 02:34:30;;;;;;;5.35;4.60;;;;;;;25.70;58.36;100890.28;5024776;28;20412;-84
2023/06/28 02:36:55;;;;;;;5.28;4.50;;;;;;;25.99;58.33;100934.72;5015051;28;20029;-85
2023/06/28 02:39:21;;;;;;;4.88;4.30;;;;;;;25.79;58.50;100900.03;5013829;28;20574;-84
2023/06/28 02:41:47;;;;;;;4.78;4.13;;;;;;;26.00;58.55;100942.75;4997701;28;20496;-84
2023/06/28 02:44:14;;;;;;;;;;;;;;;26.03;58.42;100940.94;5009516;28;20034;-84
2023/06/28 02:46:39;;;;;;;5.43;4.47;;;;;;;25.88;58.41;100912.47;5012421;28;19913;-84
2023/06/28 02:49:05;;;;;;;;;;;;;;;25.98;58.48;100928.47;5010527;28;20108;-84
2023/06/28 02:51:31;;;;;;;4.82;4.32;;;;;;;25.93;58.17;100929.41;4992094;28;19952;-84
2023/06/28 02:53:56;;;;;;;5.40;4.40;;;;;;;25.79;58.47;100905.41;5012419;28;20029;-84
2023/06/28 02:56:23;;;;;;;5.03;4.53;;;;;;;25.94;58.19;100931.19;5010861;28;20049;-84
2023/06/28 02:58:49;;;;;;;5.68;4.22;;;;;;;25.83;58.36;100909.81;4998847;28;20109;-85
2023/06/28 03:01:15;;;;;;;5.78;4.22;;;;;;;25.75;58.17;100895.59;5012347;28;20083;-85
2023/06/28 03:03:40;;;;;;;;;;;;;;;25.95;58.27;100925.84;5012199;28;20022;-86
2023/06/28 03:06:09;;;;;;;6.28;4.22;;;;;;;25.82;58.18;100907.16;5015185;28;20281;-84
2023/06/28 03:08:35;;;;;;;6.13;4.30;;;;;;;25.77;58.31;100912.53;5030775;28;20112;-85
2023/06/28 03:11:00;;;;;;;;;;;;;;;25.93;58.02;100922.28;4991861;28;20101;-86
2023/06/28 03:13:26;;;;;;;6.68;4.30;;;;;;;25.71;58.23;100889.38;5019604;28;19921;-85
2023/06/28 03:15:52;;;;;;;4.88;4.07;;;;;;;25.75;58.22;100893.81;5011193;28;20104;-84
2023/06/28 03:18:17;;;;;;;;;;;;;;;25.93;58.19;100921.38;5012325;28;20523;-84
2023/06/28 03:20:43;;;;;;;5.20;4.10;;;;;;;25.88;58.30;100913.34;5010060;28;19914;-84
2023/06/28 03:23:08;;;;;;;;;;;;;;;25.89;58.03;100915.16;5012010;28;20033;-84
2023/06/28 03:25:34;;;;;;;6.72;4.10;;;;;;;25.86;58.25;100922.28;4994216;28;20051;-84
2023/06/28 03:28:00;;;;;;;5.22;4.32;;;;;;;25.71;58.07;100900.09;5006110;28;20504;-84
2023/06/28 03:30:26;;;;;;;6.88;4.70;;;;;;;25.79;57.86;100905.41;5000273;28;20032;-85
2023/06/28 03:32:52;;;;;;;6.07;4.30;;;;;;;25.73;58.33;100894.72;5002925;28;20052;-85
2023/06/28 03:35:17;;;;;;;5.00;4.47;;;;;;;25.73;58.05;100894.72;4979023;28;20042;-84
2023/06/28 03:37:53;;;;;;;4.88;4.30;;;;;;;25.76;57.98;100900.97;5013390;28;20029;-84
2023/06/28 03:40:19;;;;;;;4.70;4.20;;;;;;;25.84;57.78;100916.06;5006889;28;20026;-85
2023/06/28 03:42:44;;;;;;;5.57;4.38;;;;;;;25.55;57.86;100863.66;4990614;28;20111;-85
2023/06/28 03:45:10;;;;;;;;;;;;;;;25.86;58.05;100908.91;4992997;28;20473;-85
2023/06/28 03:47:36;;;;;;;4.60;3.90;;;;;;;25.44;57.98;100849.44;5000429;28;19925;-85
2023/06/28 03:50:01;;;;;;;;;;;;;;;25.83;57.96;100912.50;4990310;28;20399;-86
2023/06/28 03:52:27;;;;;;;4.63;4.22;;;;;;;25.50;58.20;100869.00;4987613;28;19925;-82
2023/06/28 03:54:53;;;;;;;;;;;;;;;25.80;58.27;100918.78;5009722;28;20034;-82
2023/06/28 03:57:21;;;;;;;4.95;4.28;;;;;;;25.66;58.07;100904.59;5002257;28;19997;-84
2023/06/28 03:59:47;;;;;;;5.63;4.40;;;;;;;25.68;58.08;100908.13;5012539;28;20018;-83
2023/06/28 04:02:13;;;;;;;5.13;4.28;;;;;;;25.75;58.12;100912.53;4992519;28;20483;-81
2023/06/28 04:04:39;;;;;;;5.90;4.40;;;;;;;25.71;58.30;100912.56;5010913;28;20018;-82
2023/06/28 04:07:05;;;;;;;;;;;;;;;25.77;58.47;100917.88;5016744;28;20103;-83
2023/06/28 04:09:31;;;;;;;5.20;4.07;;;;;;;25.61;58.17;100884.97;5013403;28;19920;-84
2023/06/28 04:11:56;;;;;;;;;;;;;;;25.75;58.02;100909.88;5008107;28;20021;-83
2023/06/28 04:14:23;;;;;;;4.95;4.35;;;;;;;25.65;58.28;100896.56;5006732;28;20527;-82
2023/06/28 04:16:49;;;;;;;5.97;4.68;;;;;;;25.72;58.00;100909.03;5011949;28;20393;-83
2023/06/28 04:19:14;;;;;;;;;;;;;;;25.74;58.13;100916.13;5012083;28;20029;-82
2023/06/28 04:21:40;;;;;;;4.60;3.90;;;;;;;25.67;58.09;100911.69;5003999;28;19920;-83
2023/06/28 04:24:06;;;;;;;;;;;;;;;25.73;58.28;100919.69;5012670;28;20030;-82
2023/06/28 04:26:31;;;;;;;6.35;4.10;;;;;;;25.72;58.12;100917.03;5017572;28;19920;-82
2023/06/28 04:28:57;;;;;;;;;;;;;;;25.73;58.04;100918.81;5010419;28;20038;-83
2023/06/28 04:31:23;;;;;;;6.72;4.50;;;;;;;25.60;58.20;100905.50;5006241;28;19918;-82
2023/06/28 04:33:51;;;;;;;4.63;4.15;;;;;;;25.60;58.07;100909.97;5008575;28;20053;-82
2023/06/28 04:36:21;;;;;;;4.35;3.95;;;;;;;25.66;58.19;100917.06;4995951;28;20560;-83
2023/06/28 04:38:52;;;;;;;4.75;4.20;;;;;;;25.66;58.06;100925.97;5000237;28;20030;-82
2023/06/28 04:41:19;;;;;;;5.85;4.55;;;;;;;25.65;58.34;100926.84;5009072;28;20037;-83
2023/06/28 04:43:45;;;;;;;5.10;4.60;;;;;;;25.67;58.29;100916.16;5007770;28;20026;-84
2023/06/28 04:46:11;;;;;;;4.47;4.07;;;;;;;25.41;58.29;100874.41;5007158;28;20022;-83
2023/06/28 04:48:42;;;;;;;5.00;4.43;;;;;;;25.67;58.54;100922.41;5016923;28;20112;-84
2023/06/28 04:51:07;;;;;;;4.72;4.15;;;;;;;25.64;58.50;100924.22;5014440;28;20067;-84
2023/06/28 04:53:33;;;;;;;;;;;;;;;25.65;58.63;100929.53;5011886;28;20077;-84
2023/06/28 04:56:00;;;;;;;5.97;4.18;;;;;;;25.47;58.98;100908.25;5009893;28;20420;-83
2023/06/28 04:58:26;;;;;;;4.63;3.92;;;;;;;25.45;59.38;100907.38;5002554;28;20057;-83
2023/06/28 05:00:52;;;;;;;4.88;4.07;;;;;;;25.50;59.38;100922.47;5012021;28;20025;-83
2023/06/28 05:03:17;;;;;;;;;;;;;;;25.62;59.11;100934.03;5014632;28;20109;-84
2023/06/28 05:05:43;;;;;;;5.38;4.13;;;;;;;25.56;59.44;100933.16;5013394;28;19999;-82
2023/06/28 05:08:09;;;;;;;;;;;;;;;25.62;59.25;100929.56;5008827;28;20060;-83
2023/06/28 05:10:36;;;;;;;4.53;4.13;;;;;;;25.58;59.80;100930.47;5006064;28;21536;-85
2023/06/28 05:13:02;;;;;;;4.45;3.95;;;;;;;25.54;59.79;100923.38;5010253;28;20025;-86
2023/06/28 05:15:32;;;;;;;5.00;4.50;;;;;;;25.59;59.71;100933.16;5007336;28;20116;-85
2023/06/28 05:17:58;;;;;;;4.78;4.35;;;;;;;25.58;60.46;100930.47;5006772;28;20559;-84
2023/06/28 05:20:24;;;;;;;4.50;4.10;;;;;;;25.62;60.33;100934.03;5002532;28;20031;-85
2023/06/28 05:22:50;;;;;;;;;;;;;;;25.61;60.08;100933.13;5012772;28;20052;-83
2023/06/28 05:25:18;;;;;;;4.35;3.92;;;;;;;25.54;60.20;100923.38;5022955;28;19935;-84
2023/06/28 05:27:44;;;;;;;4.57;4.15;;;;;;;25.58;60.84;100934.03;4978739;28;20034;-84
2023/06/28 05:30:09;;;;;;;;;;;;;;;25.64;60.30;100927.78;5007405;28;20092;-83
2023/06/28 05:32:35;;;;;;;4.90;4.03;;;;;;;25.60;60.70;100936.72;5002946;28;19918;-82
2023/06/28 05:35:05;;;;;;;5.03;4.30;;;;;;;25.48;61.04;100920.72;4993884;28;20050;-82
2023/06/28 05:37:30;;;;;;;4.78;4.10;;;;;;;25.56;61.18;100934.94;5009471;28;20049;-82
2023/06/28 05:39:56;;;;;;;;;;;;;;;25.56;61.38;100934.94;5011602;28;20104;-83
2023/06/28 05:42:22;;;;;;;4.82;4.32;;;;;;;25.56;60.85;100933.16;4995430;28;20075;-81
2023/06/28 05:44:47;;;;;;;;;;;;;;;25.57;60.71;100926.94;5019096;28;20026;-85
2023/06/28 05:47:12;;;;;;;4.70;4.18;;;;;;;25.56;60.53;100918.91;4996958;28;20007;-83
2023/06/28 05:49:39;;;;;;;;;;;;;;;25.59;60.49;100929.59;5018209;28;20100;-83
2023/06/28 05:52:05;;;;;;;5.13;4.28;;;;;;;25.41;60.89;100893.13;4999531;28;20307;-87
2023/06/28 05:54:31;;;;;;;4.40;3.80;;;;;;;25.58;60.88;100926.00;5017962;28;20106;-83
2023/06/28 05:56:57;;;;;;;;;;;;;;;25.60;60.42;100921.53;5011276;28;20405;-83
2023/06/28 05:59:27;;;;;;;4.45;3.92;;;;;;;25.58;60.72;100918.00;5005383;28;19914;-83
2023/06/28 06:01:52;;;;;;;4.57;4.13;;;;;;;25.49;59.90;100890.44;5032069;28;20133;-83
2023/06/28 06:04:18;;;;;;;;;;;;;;;25.65;60.67;100916.16;5005766;28;20149;-86
2023/06/28 06:06:44;;;;;;;4.30;3.90;;;;;;;25.65;60.02;100915.28;4994796;28;19972;-85
2023/06/28 06:09:09;;;;;;;;;;;;;;;25.67;59.94;100918.84;5012773;28;20022;-87
2023/06/28 06:11:36;;;;;;;4.50;4.10;;;;;;;25.55;60.06;100891.28;4993712;28;19914;-82
2023/06/28 06:14:01;;;;;;;4.68;4.10;;;;;;;25.59;59.54;100897.50;5018257;28;20038;-84
2023/06/28 06:16:27;;;;;;;;;;;;;;;25.70;59.67;100908.13;5006231;28;20558;-84
2023/06/28 06:18:55;;;;;;;4.45;3.95;;;;;;;25.45;59.57;100872.63;5013618;28;20422;-84
2023/06/28 06:21:21;;;;;;;4.15;3.83;;;;;;;25.62;59.39;100893.91;5018074;28;20040;-84
2023/06/28 06:23:46;;;;;;;;;;;;;;;25.72;59.23;100898.31;5017970;28;20026;-84
2023/06/28 06:26:12;;;;;;;4.00;3.70;;;;;;;25.73;59.27;100905.44;5011063;28;19928;-83
2023/06/28 06:28:38;;;;;;;3.88;3.58;;;;;;;25.72;59.06;100901.00;4992838;28;20108;-84
2023/06/28 06:31:03;;;;;;;4.38;3.80;;;;;;;25.67;59.21;100892.97;5009677;28;20090;-82
2023/06/28 06:33:29;;;;;;;4.72;4.00;;;;;;;25.74;59.10;100896.53;5008689;28;20050;-85
2023/06/28 06:35:54;;;;;;;4.22;3.83;;;;;;;25.73;59.20;100898.28;5009394;28;20075;-84
2023/06/28 06:38:20;;;;;;;;;;;;;;;25.78;59.14;100907.19;4995772;28;20042;-84
2023/06/28 06:40:48;;;;;;;4.78;4.00;;;;;;;25.74;59.24;100894.72;5010425;28;19913;-84
2023/06/28 06:43:17;;;;;;;4.25;3.85;;;;;;;25.76;59.16;100897.38;5011157;28;20025;-85
2023/06/28 06:45:43;;;;;;;4.38;3.97;;;;;;;25.74;58.40;100889.38;4996918;28;20088;-82
2023/06/28 06:48:08;;;;;;;;;;;;;;;25.80;59.09;100901.81;5010992;28;20025;-84
2023/06/28 06:50:34;;;;;;;4.63;4.15;;;;;;;25.77;59.24;100897.38;5008501;28;19913;-83
2023/06/28 06:52:59;;;;;;;;;;;;;;;25.82;58.80;100894.66;4993050;28;20026;-83
2023/06/28 06:55:25;;;;;;;4.45;3.80;;;;;;;25.80;58.98;100889.34;5010063;28;19917;-83
2023/06/28 06:57:50;;;;;;;5.00;4.32;;;;;;;25.80;59.05;100894.69;5001725;28;20412;-84
2023/06/28 07:00:16;;;;;;;4.15;3.75;;;;;;;25.85;59.25;100893.78;4994757;28;20029;-83
2023/06/28 07:02:42;;;;;;;;;;;;;;;25.83;59.36;100896.44;5018468;28;20932;-83
2023/06/28 07:05:07;;;;;;;5.00;3.97;;;;;;;25.69;59.34;100879.59;4992271;28;19919;-83
2023/06/28 07:07:33;;;;;;;;;;;;;;;25.86;58.97;100907.13;5010942;28;20036;-82
2023/06/28 07:09:58;;;;;;;4.30;3.90;;;;;;;25.82;59.24;100897.34;4998855;28;19913;-82
2023/06/28 07:12:24;;;;;;;;;;;;;;;25.85;59.43;100907.16;4997924;28;20138;-83
2023/06/28 07:14:49;;;;;;;5.35;4.30;;;;;;;25.72;59.02;100874.25;5002791;28;20435;-83
2023/06/28 07:17:15;;;;;;;;;;;;;;;25.85;59.20;100900.00;5009306;28;20133;-82
2023/06/28 07:19:41;;;;;;;5.32;4.30;;;;;;;25.87;59.39;100894.66;5009599;28;19970;-83
2023/06/28 07:22:06;;;;;;;;;;;;;;;25.88;59.49;100899.97;5007458;28;20084;-82
2023/06/28 07:24:35;;;;;;;4.60;4.13;;;;;;;25.74;59.04;100870.66;5007596;28;20011;-83
2023/06/28 07:27:00;;;;;;;5.10;4.30;;;;;;;25.88;59.28;100894.63;5010704;28;20041;-82
2023/06/28 07:29:27;;;;;;;;;;;;;;;25.91;59.07;100897.31;5005863;28;20620;-82
2023/06/28 07:31:53;;;;;;;4.40;4.00;;;;;;;25.81;59.10;100884.88;4991720;28;20445;-81
2023/06/28 07:34:19;;;;;;;5.45;4.53;;;;;;;25.84;59.39;100889.31;5007356;28;20030;-82
2023/06/28 07:36:45;;;;;;;4.70;4.18;;;;;;;25.90;59.33;100891.97;5009026;28;20492;-82
2023/06/28 07:39:10;;;;;;;;;;;;;;;25.90;59.15;100898.22;5004548;28;20033;-83
2023/06/28 07:41:36;;;;;;;4.85;4.03;;;;;;;25.91;59.13;100893.75;5007137;28;19909;-83
2023/06/28 07:44:02;;;;;;;4.30;3.90;;;;;;;25.90;59.23;100895.53;5010063;28;20476;-82
2023/06/28 07:46:28;;;;;;;4.90;4.00;;;;;;;25.89;59.10;100888.41;5010722;28;20021;-82
2023/06/28 07:48:56;;;;;;;;;;;;;;;25.92;59.09;100892.84;5011288;28;20053;-80
2023/06/28 07:51:21;;;;;;;4.50;4.10;;;;;;;25.90;59.32;100886.63;5009565;28;19999;-79
2023/06/28 07:53:47;;;;;;;;;;;;;;;25.93;59.07;100892.84;5010468;28;20485;-80
2023/06/28 07:56:13;;;;;;;4.55;4.05;;;;;;;25.90;59.11;100881.28;5005257;28;19921;-79
2023/06/28 07:58:38;;;;;;;4.90;4.40;;;;;;;25.92;59.47;100887.50;5005672;28;20042;-80
2023/06/28 08:01:04;;;;;;;;;;;;;;;25.95;59.32;100883.03;5013353;28;20109;-79
2023/06/28 08:03:29;;;;;;;4.75;4.18;;;;;;;25.89;59.31;100882.19;5000305;28;20402;-79
2023/06/28 08:05:55;;;;;;;;;;;;;;;25.94;59.15;100886.59;5003730;28;20768;-79
2023/06/28 08:08:20;;;;;;;4.63;3.97;;;;;;;25.90;59.33;100878.59;4995648;28;19921;-79
2023/06/28 08:10:46;;;;;;;;;;;;;;;25.93;59.39;100882.16;5004712;28;20022;-81
2023/06/28 08:13:11;;;;;;;4.78;4.28;;;;;;;25.92;59.25;100876.78;5000706;28;19917;-80
2023/06/28 08:15:38;;;;;;;;;;;;;;;25.92;59.55;100879.47;5012865;28;20038;-79
2023/06/28 08:18:05;;;;;;;5.97;4.45;;;;;;;25.72;59.63;100840.34;5015248;28;19920;-80
2023/06/28 08:20:31;;;;;;;5.43;4.78;;;;;;;25.94;59.32;100878.56;5003986;28;20038;-79
2023/06/28 08:22:57;;;;;;;;;;;;;;;25.92;59.36;100880.34;4989573;28;20026;-79
2023/06/28 08:25:22;;;;;;;4.47;4.07;;;;;;;25.89;59.27;100868.81;5004549;28;19920;-80
2023/06/28 08:27:47;;;;;;;;;;;;;;;25.95;59.23;100883.03;5011942;28;20022;-80
2023/06/28 08:30:13;;;;;;;5.15;4.32;;;;;;;25.89;59.26;100867.00;5008666;28;19917;-79
2023/06/28 08:32:40;;;;;;;;;;;;;;;25.95;59.30;100874.09;4992738;28;20043;-80
2023/06/28 08:35:07;;;;;;;4.75;4.22;;;;;;;25.94;59.10;100870.53;4994436;28;19917;-80
2023/06/28 08:37:34;;;;;;;4.63;4.22;;;;;;;25.95;59.17;100872.31;5023554;28;20123;-78
2023/06/28 08:40:01;;;;;;;4.68;4.18;;;;;;;25.91;59.25;100861.66;5002843;28;20049;-79
2023/06/28 08:42:28;;;;;;;6.78;4.43;;;;;;;25.88;58.87;100858.97;4994976;28;20053;-78
2023/06/28 08:44:56;;;;;;;5.03;4.40;;;;;;;25.99;59.07;100870.47;5022930;28;20034;-79
2023/06/28 08:47:21;;;;;;;4.75;4.25;;;;;;;25.97;58.82;100862.50;5003706;28;20074;-80
2023/06/28 08:49:47;;;;;;;;;;;;;;;26.01;59.06;100866.00;5011453;28;20069;-80
2023/06/28 08:52:14;;;;;;;4.93;4.30;;;;;;;25.99;59.04;100862.44;4995343;28;20364;-81
2023/06/28 08:54:42;;;;;;;4.80;4.30;;;;;;;25.99;58.97;100855.34;5006691;28;20121;-81
2023/06/28 08:57:07;;;;;;;5.38;4.60;;;;;;;26.00;58.77;100850.88;5006079;28;20041;-80
2023/06/28 08:59:32;;;;;;;;;;;;;;;26.05;58.99;100853.50;5009084;28;20018;-79
2023/06/28 09:01:59;;;;;;;5.25;4.35;;;;;;;25.90;58.92;100835.78;5003887;28;20326;-79
2023/06/28 09:04:28;;;;;;;4.75;4.22;;;;;;;26.02;58.90;100851.75;5008508;28;20139;-79
2023/06/28 09:06:55;;;;;;;4.90;4.30;;;;;;;26.06;58.75;100850.81;4994432;28;20029;-80
2023/06/28 09:09:21;;;;;;;5.28;4.55;;;;;;;26.06;59.07;100856.19;5003027;28;20034;-80
2023/06/28 09:11:46;;;;;;;;;;;;;;;26.08;58.65;100849.03;5012496;28;20594;-81
2023/06/28 09:14:12;;;;;;;5.80;4.25;;;;;;;26.07;58.84;100860.59;5012401;28;19909;-80
2023/06/28 09:16:38;;;;;;;5.20;4.22;;;;;;;26.08;58.88;100851.69;5003284;28;20030;-80
2023/06/28 09:19:04;;;;;;;4.93;4.07;;;;;;;26.09;58.94;100856.13;5009464;28;20033;-81
2023/06/28 09:21:31;;;;;;;;;;;;;;;26.12;58.62;100860.56;5009774;28;20487;-80
2023/06/28 09:23:57;;;;;;;4.53;3.85;;;;;;;26.12;58.85;100852.53;5006761;28;19963;-81
2023/06/28 09:26:29;;;;;;;;;;;;;;;26.12;58.96;100856.13;5006015;28;20464;-81
2023/06/28 09:28:58;;;;;;;6.25;4.57;;;;;;;26.03;58.86;100837.44;5011183;28;19913;-81
2023/06/28 09:31:24;;;;;;;7.10;4.75;;;;;;;26.00;58.81;100835.69;5012724;28;20519;-81
2023/06/28 09:33:53;;;;;;;;;;;;;;;26.14;58.69;100846.28;5010094;28;20030;-80
2023/06/28 09:36:19;;;;;;;6.00;4.45;;;;;;;26.09;58.78;100840.06;5001314;28;19918;-80
2023/06/28 09:38:44;;;;;;;;;;;;;;;26.18;58.45;100852.47;4996424;28;20091;-80
2023/06/28 09:41:10;;;;;;;6.35;4.88;;;;;;;26.06;58.93;100831.22;4995374;28;20004;-80
2023/06/28 09:43:37;;;;;;;14.52;6.00;;;;;;;26.38;59.79;100853.19;4995841;28;20097;-89
2023/06/28 09:46:16;;;;;;;11.38;6.95;;;;;;;26.47;60.11;100854.88;5012976;28;20017;-83
2023/06/28 09:48:44;;;;;;;9.77;6.53;;;;;;;26.30;60.36;100847.03;5001081;28;20049;-83
2023/06/28 09:51:11;;;;;;;9.23;5.93;;;;;;;26.27;59.96;100848.81;5027384;28;20037;-82
2023/06/28 09:53:48;;;;;;;8.75;6.15;;;;;;;26.22;59.75;100851.56;4981234;28;20405;-82
2023/06/28 09:56:14;;;;;;;8.23;5.80;;;;;;;26.19;59.69;100841.78;4992647;28;20027;-82
2023/06/28 09:58:39;;;;;;;;;;;;;;;26.28;59.43;100859.53;5005851;28;20025;-83
2023/06/28 10:01:05;;;;;;;9.55;5.95;;;;;;;26.25;59.57;100859.56;5022025;28;19909;-84
2023/06/28 10:03:30;;;;;;;;;;;;;;;26.24;59.41;100863.13;5009082;28;20616;-83
2023/06/28 10:05:56;;;;;;;9.45;6.10;;;;;;;26.22;59.26;100867.63;5016003;28;19913;-84
2023/06/28 10:08:28;;;;;;;10.40;6.18;;;;;;;26.22;59.08;100862.25;5008250;28;20488;-83
2023/06/28 10:10:58;;;;;;;7.88;5.45;;;;;;;26.23;58.98;100861.38;4995499;28;20091;-84
2023/06/28 10:13:43;;;;;;;8.65;5.65;;;;;;;26.02;59.04;100827.66;5011661;28;20101;-83
2023/06/28 10:16:14;;;;;;;8.50;5.60;;;;;;;26.23;58.91;100861.38;4985220;28;20040;-83
2023/06/28 10:18:45;;;;;;;8.63;5.07;;;;;;;25.73;59.11;100777.03;5012883;28;20030;-83
2023/06/28 10:21:14;;;;;;;7.65;5.22;;;;;;;25.89;59.31;100796.56;4976150;28;20061;-82
2023/06/28 10:23:41;;;;;;;7.57;5.43;;;;;;;26.25;59.17;100858.69;4994404;28;20038;-83
2023/06/28 10:26:08;;;;;;;7.43;5.30;;;;;;;26.26;58.76;100858.66;4992160;28;20026;-85
2023/06/28 10:28:39;;;;;;;7.55;5.57;;;;;;;26.26;59.06;100845.28;4995228;28;20590;-84
2023/06/28 10:31:05;;;;;;;7.78;4.85;;;;;;;26.20;58.76;100846.25;4979288;28;20056;-83
2023/06/28 10:33:31;;;;;;;6.97;5.47;;;;;;;25.89;58.74;100794.78;5007642;28;20485;-83
2023/06/28 10:36:00;;;;;;;6.95;5.53;;;;;;;26.28;58.76;100854.19;4982657;28;20028;-84
2023/06/28 10:38:28;;;;;;;6.90;5.25;;;;;;;26.28;58.97;100846.16;5012660;28;20037;-82
2023/06/28 10:40:55;;;;;;;6.05;5.22;;;;;;;26.22;59.20;100834.63;5009878;28;20460;-83
2023/06/28 10:43:23;;;;;;;6.70;5.05;;;;;;;26.25;58.81;100838.16;5010279;28;20033;-83
2023/06/28 10:45:48;;;;;;;8.45;5.43;;;;;;;26.28;58.85;100846.16;5005986;28;20105;-82
2023/06/28 10:48:17;;;;;;;;;;;;;;;26.26;58.89;100837.25;4982012;28;20507;-82
2023/06/28 10:50:43;;;;;;;8.85;5.13;;;;;;;26.26;59.32;100831.88;5011538;28;20003;-83
2023/06/28 10:53:25;;;;;;;8.68;5.57;;;;;;;26.27;58.96;100831.00;4995472;28;20030;-83
2023/06/28 10:56:18;;;;;;;8.73;4.70;;;;;;;26.26;59.02;100826.53;5009030;28;20026;-82
2023/06/28 10:58:45;;;;;;;5.75;4.88;;;;;;;26.30;58.62;100836.31;5023599;28;20042;-83
2023/06/28 11:01:38;;;;;;;7.32;5.45;;;;;;;26.27;59.02;100825.66;5001353;28;20159;-82
2023/06/28 11:04:22;;;;;;;6.78;5.10;;;;;;;26.20;58.99;100808.75;5003658;28;20108;-82
2023/06/28 11:06:49;;;;;;;6.90;4.75;;;;;;;26.29;58.98;100825.59;4981150;28;20485;-83
2023/06/28 11:09:17;;;;;;;6.60;4.32;;;;;;;26.29;58.70;100839.00;5001812;28;20079;-85
2023/06/28 11:11:53;;;;;;;6.43;4.70;;;;;;;26.30;58.63;100832.75;4992740;28;20028;-85
2023/06/28 11:14:32;;;;;;;7.78;4.75;;;;;;;26.22;58.86;100826.59;5020388;28;20014;-86
2023/06/28 11:17:11;;;;;;;6.90;4.90;;;;;;;26.27;58.77;100836.34;5005306;28;20026;-85
2023/06/28 11:19:40;;;;;;;7.47;4.93;;;;;;;26.25;58.49;100832.81;5004737;28;20034;-83
2023/06/28 11:22:09;;;;;;;8.75;5.15;;;;;;;26.31;58.61;100845.22;4992854;28;20026;-85
2023/06/28 11:24:43;;;;;;;6.78;4.63;;;;;;;26.33;58.78;100847.00;4993540;28;20045;-84
2023/06/28 11:27:20;;;;;;;6.40;4.55;;;;;;;26.35;58.70;100845.19;4978155;28;20117;-83
2023/06/28 11:30:00;;;;;;;7.65;5.03;;;;;;;26.10;58.30;100795.44;4986233;28;20022;-84
2023/06/28 11:32:28;;;;;;;5.70;4.90;;;;;;;26.05;58.66;100790.16;5010352;28;20061;-83
2023/06/28 11:34:58;;;;;;;5.45;4.57;;;;;;;26.20;58.30;100805.16;4995960;28;20104;-84
2023/06/28 11:37:25;;;;;;;6.13;4.70;;;;;;;26.28;58.75;100824.72;4984422;28;20044;-84
2023/06/28 11:39:50;;;;;;;5.78;4.75;;;;;;;26.30;58.39;100817.56;4983719;28;20036;-84